»·PEaware :: DAL691 KSAN-KSBA

DAL691 :: KSAN-KSBA

FLIGHT INFORMATION

Flight Status: Arrived
Operator:
Delta Air Lines
More flights by this operator :: More flights under this callsign
Pilot: Thomas N. (7419)
Aircraft: SAAB 340
(SF34)
More flights by this aircraft type
Origin: KSAN San Diego Intl-Lindbergh
United States
Destination: KSBA Santa Barbara Mun
United States
More flights between these airports :: More routes between these airports
Route: +PEBLE6 SXC V208 VTU VTU282 KWANG
File this flight plan on PilotEdge
Remarks:
Altitude:
(Current/Filed)
16,000ft
Speed:
(Current/Filed)
230kts
Departed: 05-Nov-15 02:58 PM
Arrived: 05-Nov-15 03:48 PM
Distance/Time
Traveled:
167nm/0:50
Distance/Time
To Go:
Arrived

Flight Plot

Page will automatically refresh every two minutes.


Map Options




Map Legend


Flown Route
Filed Route
Departure Airport
Arrival Airport
Navaid (VOR, NDB)
Fix

Horizontal Profiles

Position Reports

Time Latitude Longitude Heading Altitude Ground
Speed
05-Nov-15 14:17 32.731151 -117.190577 330 22ft 0kts
05-Nov-15 14:18 32.731151 -117.190577 330 22ft 0kts
05-Nov-15 14:19 32.731151 -117.190577 330 22ft 0kts
05-Nov-15 14:20 32.731151 -117.190577 330 22ft 0kts
05-Nov-15 14:21 32.731151 -117.190577 330 22ft 0kts
05-Nov-15 14:22 32.731151 -117.190577 330 22ft 0kts
05-Nov-15 14:23 32.731151 -117.190577 330 22ft 0kts
05-Nov-15 14:24 32.731151 -117.190577 330 22ft 0kts
05-Nov-15 14:25 32.731151 -117.190577 330 22ft 0kts
05-Nov-15 14:26 32.731151 -117.190577 330 22ft 0kts
05-Nov-15 14:27 32.731151 -117.190577 330 22ft 0kts
05-Nov-15 14:28 32.731151 -117.190577 330 22ft 0kts
05-Nov-15 14:29 32.731151 -117.190577 330 22ft 0kts
05-Nov-15 14:30 32.731151 -117.190577 330 22ft 0kts
05-Nov-15 14:31 32.731151 -117.190577 330 22ft 0kts
05-Nov-15 14:32 32.731151 -117.190577 330 22ft 0kts
05-Nov-15 14:33 32.731151 -117.190577 330 22ft 0kts
05-Nov-15 14:34 32.731151 -117.190577 330 22ft 0kts
05-Nov-15 14:35 32.731151 -117.190577 330 22ft 0kts
05-Nov-15 14:36 32.731151 -117.190577 330 22ft 0kts
05-Nov-15 14:37 32.731151 -117.190577 330 22ft 0kts
05-Nov-15 14:38 32.731151 -117.190577 330 22ft 0kts
05-Nov-15 14:39 32.731151 -117.190577 330 22ft 0kts
05-Nov-15 14:40 32.731151 -117.190577 330 22ft 0kts
05-Nov-15 14:41 32.731151 -117.190577 330 22ft 0kts
05-Nov-15 14:42 32.731151 -117.190577 330 22ft 0kts
05-Nov-15 14:43 32.731151 -117.190577 330 22ft 0kts
05-Nov-15 14:44 32.731151 -117.190577 330 22ft 0kts
05-Nov-15 14:45 32.731151 -117.190577 330 22ft 0kts
05-Nov-15 14:46 32.731151 -117.190577 330 22ft 0kts
05-Nov-15 14:47 32.731151 -117.190577 330 22ft 0kts
05-Nov-15 14:48 32.731151 -117.190577 330 22ft 0kts
05-Nov-15 14:49 32.731358 -117.190709 332 22ft 5kts
05-Nov-15 14:50 32.732285 -117.188688 105 22ft 18kts
05-Nov-15 14:51 32.731083 -117.183698 105 22ft 10kts
05-Nov-15 14:52 32.729890 -117.178770 105 22ft 21kts
05-Nov-15 14:53 32.729493 -117.176778 70 22ft 0kts
05-Nov-15 14:54 32.729572 -117.176514 69 22ft 7kts
05-Nov-15 14:55 32.730399 -117.176679 286 22ft 8kts
05-Nov-15 14:56 32.738816 -117.209994 293 464ft 156kts
05-Nov-15 14:57 32.762686 -117.251254 306 2694ft 152kts
05-Nov-15 14:58 32.787341 -117.291508 306 3995ft 154kts
05-Nov-15 14:59 32.812482 -117.333365 306 5682ft 158kts
05-Nov-15 15:00 32.837951 -117.377699 306 7916ft 172kts
05-Nov-15 15:01 32.871292 -117.435293 306 7998ft 239kts
05-Nov-15 15:02 32.911171 -117.502191 306 7992ft 252kts
05-Nov-15 15:03 32.967929 -117.547320 331 7986ft 239kts
05-Nov-15 15:04 33.023520 -117.586221 296 7820ft 232kts
05-Nov-15 15:05 33.067506 -117.637655 329 7826ft 232kts
05-Nov-15 15:06 33.079781 -117.704929 289 7771ft 224kts
05-Nov-15 15:07 33.126667 -117.755399 310 7775ft 229kts
05-Nov-15 15:08 33.167467 -117.814191 307 7778ft 229kts
05-Nov-15 15:09 33.194982 -117.880477 287 7706ft 230kts
05-Nov-15 15:10 33.225338 -117.949280 283 7464ft 247kts
05-Nov-15 15:11 33.245394 -118.024024 291 8013ft 232kts
05-Nov-15 15:12 33.269220 -118.097670 292 8051ft 240kts
05-Nov-15 15:13 33.293639 -118.171112 291 8048ft 243kts
05-Nov-15 15:14 33.317883 -118.244761 291 8017ft 244kts
05-Nov-15 15:15 33.342991 -118.321286 291 8024ft 258kts
05-Nov-15 15:16 33.369880 -118.403490 291 8020ft 269kts
05-Nov-15 15:17 33.413453 -118.475654 312 8020ft 270kts
05-Nov-15 15:18 33.460216 -118.540962 310 8017ft 259kts
05-Nov-15 15:19 33.506142 -118.606422 310 8019ft 254kts
05-Nov-15 15:20 33.551487 -118.671252 310 8019ft 253kts
05-Nov-15 15:21 33.594005 -118.732207 310 8013ft 223kts
05-Nov-15 15:22 33.625101 -118.794178 299 8020ft 220kts
05-Nov-15 15:23 33.655135 -118.861474 296 8011ft 233kts
05-Nov-15 15:24 33.700396 -118.916646 321 8006ft 237kts
05-Nov-15 15:25 33.751989 -118.966636 319 8003ft 238kts
05-Nov-15 15:26 33.803572 -119.016954 319 8006ft 238kts
05-Nov-15 15:27 33.854662 -119.066879 319 8007ft 232kts
05-Nov-15 15:28 33.903928 -119.114973 319 8009ft 228kts
05-Nov-15 15:29 33.954174 -119.163909 318 8009ft 233kts
05-Nov-15 15:30 34.004409 -119.213166 318 8005ft 232kts
05-Nov-15 15:31 34.050217 -119.258185 317 8002ft 201kts
05-Nov-15 15:32 34.092797 -119.300147 317 7999ft 194kts
05-Nov-15 15:33 34.134343 -119.341125 317 8000ft 191kts
05-Nov-15 15:34 34.168510 -119.374938 317 8000ft 190kts
05-Nov-15 15:35 34.209288 -119.415246 317 8000ft 188kts
05-Nov-15 15:36 34.247297 -119.458005 285 7716ft 182kts
05-Nov-15 15:37 34.271771 -119.504373 310 6510ft 164kts
05-Nov-15 15:38 34.294512 -119.549653 297 5297ft 154kts
05-Nov-15 15:39 34.316143 -119.595762 301 4117ft 164kts
05-Nov-15 15:40 34.342302 -119.636041 316 3617ft 144kts
05-Nov-15 15:41 34.377570 -119.658856 330 3086ft 146kts
05-Nov-15 15:42 34.412393 -119.685758 325 2382ft 151kts
05-Nov-15 15:43 34.430704 -119.723620 264 1847ft 144kts
05-Nov-15 15:44 34.428816 -119.774104 267 1182ft 142kts
05-Nov-15 15:45 34.428015 -119.818464 269 396ft 122kts
05-Nov-15 15:46 34.427294 -119.846065 236 18ft 15kts
05-Nov-15 15:47 34.426671 -119.846386 177 18ft 0kts
05-Nov-15 15:48 34.426321 -119.844501 89 18ft 16kts
05-Nov-15 15:49 34.425898 -119.838234 167 18ft 15kts
05-Nov-15 15:50 34.425484 -119.837191 94 18ft 0kts

Navigation Log

Ident Type
Flight plan parsing failed, navigation log unavailable